Voyager Of The Seas — C6SE5 — position and weather

sailwx.info

Track history (hours):
 
Tides and Currents Weather Stations Pressure Air Temp Water Temp Dewpoint Dewpoint Depression Visibility Wind Speed Wind Dir Waves Ship Positions

Voyager Of The Seas

Operator: Royal Caribbean Cruises Ltd

Last reported at 2019-Aug-22 07:00 UTC. Time now 2019-Aug-22 09:48 UTC.
Position N 18°30' E 110°48'.

Type: Passenger vessel. MMSI: 311317000.

Wind from 250 at 27 knots

Barometer 1002.0 mb
Air temperature 27.0 ° C
Visibility: greater than 10.8 NM
Dewpoint 15.8 ° C
Water temperature 27.0 ° C

Date/timePositionNaut miles runAvg speedWind from/ knotsBaromVisibWave heightAir tempDewpointWater temp
2019-Aug-22 07:00N 18°30' E 110°48'9513.6 250 / 271002.010.8 27.015.827.0
2019-Aug-22 00:00N 19°42' E 111°54'11514.2 310 / 51003.0 5.4 27.0 28.0
2019-Aug-21 15:51N 21°04' E 113°20'8913.5
2019-Aug-21 09:18N 22°18' E 114°13'1 2.3
2019-Aug-21 08:56N 22°18' E 114°13'0 0.0
2019-Aug-21 07:27N 22°18' E 114°13'0 0.0
2019-Aug-21 06:52N 22°18' E 114°13'0 0.0
2019-Aug-21 06:30N 22°18' E 114°13'0 0.0
2019-Aug-21 06:00N 22°18' E 114°13'0 0.0
2019-Aug-21 05:30N 22°18' E 114°13'0 0.0
2019-Aug-21 05:00N 22°18' E 114°13'0 0.0
2019-Aug-21 04:30N 22°18' E 114°13'0 0.0
2019-Aug-21 03:58N 22°18' E 114°13'0 0.0
2019-Aug-21 03:30N 22°18' E 114°13'0 0.0
2019-Aug-21 02:58N 22°18' E 114°13'0 0.0
2019-Aug-21 02:30N 22°18' E 114°13'0 0.0
2019-Aug-21 02:00N 22°18' E 114°13'0 0.0
2019-Aug-21 01:30N 22°18' E 114°13'0 0.0
2019-Aug-21 01:00N 22°18' E 114°13'0 0.0
2019-Aug-21 00:29N 22°18' E 114°13'0 0.0
2019-Aug-20 23:59N 22°18' E 114°13'0 0.0
2019-Aug-20 23:29N 22°18' E 114°13'0 0.0
2019-Aug-20 22:47N 22°18' E 114°13'0 0.8
2019-Aug-20 22:30N 22°18' E 114°13'4015.9
2019-Aug-20 20:00N 22°06' E 114°54'36217.2 060 / 121002.0 5.4 27.0
2019-Aug-19 23:00N 21°48' E 121°24'15216.9 280 / 81003.010.8 28.0 28.0
2019-Aug-19 14:00N 23°48' E 123°06'126 6.6 300 / 91002.010.8 26.014.8
2019-Aug-18 19:00N 25°00' E 125°00'193 9.6 330 / 101001.0 5.4 27.0
2019-Aug-17 23:00N 27°06' E 127°42'8220.6 290 / 31002.0 5.4 28.0 29.0
2019-Aug-17 19:00N 28°24' E 128°12'97 2.5 140 / 51001.0 5.4 28.0
2019-Aug-16 05:00N 28°42' E 126°24'10818.0 230 / 8999.0 30.020.0
2019-Aug-15 23:00N 27°42' E 124°42'22117.5 240 / 15999.0 5.4 29.0 28.0
2019-Aug-15 10:22N 25°40' E 121°16'8318.9
2019-Aug-15 06:00N 24°54' E 120°00'10918.2 180 / 23997.0 30.020.030.0
2019-Aug-15 00:00N 23°42' E 118°30'2118.2 230 / 19999.0 2.2 28.0 28.0
2019-Aug-14 22:52N 23°30' E 118°12'1517.9
2019-Aug-14 22:01N 23°20' E 117°60'317.9
2019-Aug-14 21:53N 23°19' E 117°57'817.6
2019-Aug-14 21:24N 23°14' E 117°50'717.5
2019-Aug-14 20:59N 23°10' E 117°43'817.6
2019-Aug-14 20:30N 23°07' E 117°34'2038.3
2019-Aug-14 20:00N 22°54' E 117°18'17416.3 220 / 188998.0 5.4 28.0
2019-Aug-14 09:18N 22°17' E 114°14'1 4.2
2019-Aug-14 09:00N 22°18' E 114°13'0 0.0
2019-Aug-14 08:25N 22°18' E 114°13'0 0.0
2019-Aug-14 07:49N 22°18' E 114°13'0 0.0
2019-Aug-14 07:13N 22°18' E 114°13'0 0.0
2019-Aug-14 06:49N 22°18' E 114°13'0 0.0
2019-Aug-14 04:49N 22°18' E 114°13'0 0.0
2019-Aug-14 04:25N 22°18' E 114°13'0 0.0
2019-Aug-14 03:01N 22°18' E 114°13'0 0.0
2019-Aug-14 01:13N 22°18' E 114°13'0 0.0
2019-Aug-14 00:43N 22°18' E 114°13'0 0.0
2019-Aug-14 00:25N 22°18' E 114°13'0 0.0
2019-Aug-13 23:19N 22°18' E 114°13'0 0.0
2019-Aug-13 22:55N 22°18' E 114°13'1 1.4
2019-Aug-13 22:30N 22°18' E 114°13'3011.8
2019-Aug-13 20:00N 21°48' E 114°12'1511.7 230 / 14998.010.8 28.0
2019-Aug-13 18:43N 21°42' E 113°57'617.0
2019-Aug-13 18:24N 21°39' E 113°53'3117.1
2019-Aug-13 16:35N 21°20' E 113°26'417.4
2019-Aug-13 16:22N 21°19' E 113°22'1217.4
2019-Aug-13 15:40N 21°12' E 113°11'3317.4
2019-Aug-13 13:46N 20°54' E 112°41'617.4
2019-Aug-13 13:26N 20°51' E 112°36'711.3
2019-Aug-13 12:47N 20°48' E 112°29'1817.4
2019-Aug-13 11:45N 20°41' E 112°11'1617.8
2019-Aug-13 10:52N 20°35' E 111°56'3616.6
2019-Aug-13 08:41N 20°18' E 111°21'618.0
2019-Aug-13 08:22N 20°16' E 111°16'4612.3
2019-Aug-13 04:36N 20°13' E 110°27'110.5
2019-Aug-13 04:28N 20°12' E 110°25'510.4
2019-Aug-13 04:00N 20°11' E 110°20'510.3
2019-Aug-13 03:30N 20°10' E 110°15'5 9.5
2019-Aug-13 03:00N 20°09' E 110°10'510.1
2019-Aug-13 02:30N 20°08' E 110°05'16 9.7
2019-Aug-13 00:53N 20°07' E 109°48'4 5.9
2019-Aug-13 00:17N 20°05' E 109°51'7 7.9
2019-Aug-12 23:21N 20°08' E 109°44'512.3
2019-Aug-12 22:58N 20°10' E 109°39'713.3
2019-Aug-12 22:25N 20°11' E 109°32'813.6
2019-Aug-12 21:51N 20°13' E 109°24'513.5
2019-Aug-12 21:30N 20°14' E 109°19'713.5
2019-Aug-12 21:00N 20°15' E 109°12'714.0
2019-Aug-12 20:30N 20°16' E 109°05'1120.9
2019-Aug-12 20:00N 20°12' E 108°54'6284.5 210 / 24997.010.8 29.0
2019-Aug-12 19:58N 20°18' E 108°56'714.7
2019-Aug-12 19:30N 20°18' E 108°49'914.6
2019-Aug-12 18:55N 20°20' E 108°40'613.8
2019-Aug-12 18:28N 20°21' E 108°34'1013.7
2019-Aug-12 17:46N 20°22' E 108°24'713.8
2019-Aug-12 17:17N 20°23' E 108°17'614.0
2019-Aug-12 16:50N 20°26' E 108°11'714.0
2019-Aug-12 16:21N 20°29' E 108°04'713.7
2019-Aug-12 15:52N 20°29' E 107°57'513.6
2019-Aug-12 15:30N 20°30' E 107°52'1513.8
2019-Aug-12 14:27N 20°33' E 107°36'813.5
2019-Aug-12 13:52N 20°35' E 107°28'513.7
2019-Aug-12 13:30N 20°36' E 107°23'713.5
2019-Aug-12 13:00N 20°38' E 107°16'813.0
2019-Aug-12 12:23N 20°44' E 107°11'  
Track history (hours):
 
Tides and Currents Weather Stations Pressure Air Temp Water Temp Dewpoint Dewpoint Depression Visibility Wind Speed Wind Dir Waves Ship Positions

Voyager Of The Seas

Operator: Royal Caribbean Cruises Ltd

Last reported at 2019-Aug-22 07:00 UTC. Time now 2019-Aug-22 09:48 UTC.
Position N 18°30' E 110°48'.

Type: Passenger vessel. MMSI: 311317000.

Wind from 250 at 27 knots

Barometer 1002.0 mb
Air temperature 27.0 ° C
Visibility: greater than 10.8 NM
Dewpoint 15.8 ° C
Water temperature 27.0 ° C

Date/timePositionNaut miles runAvg speedWind from/ knotsBaromVisibWave heightAir tempDewpointWater temp
2019-Aug-22 07:00N 18°30' E 110°48'9513.6 250 / 271002.010.8 27.015.827.0
2019-Aug-22 00:00N 19°42' E 111°54'11514.2 310 / 51003.0 5.4 27.0 28.0
2019-Aug-21 15:51N 21°04' E 113°20'8913.5
2019-Aug-21 09:18N 22°18' E 114°13'1 2.3
2019-Aug-21 08:56N 22°18' E 114°13'0 0.0
2019-Aug-21 07:27N 22°18' E 114°13'0 0.0
2019-Aug-21 06:52N 22°18' E 114°13'0 0.0
2019-Aug-21 06:30N 22°18' E 114°13'0 0.0
2019-Aug-21 06:00N 22°18' E 114°13'0 0.0
2019-Aug-21 05:30N 22°18' E 114°13'0 0.0
2019-Aug-21 05:00N 22°18' E 114°13'0 0.0
2019-Aug-21 04:30N 22°18' E 114°13'0 0.0
2019-Aug-21 03:58N 22°18' E 114°13'0 0.0
2019-Aug-21 03:30N 22°18' E 114°13'0 0.0
2019-Aug-21 02:58N 22°18' E 114°13'0 0.0
2019-Aug-21 02:30N 22°18' E 114°13'0 0.0
2019-Aug-21 02:00N 22°18' E 114°13'0 0.0
2019-Aug-21 01:30N 22°18' E 114°13'0 0.0
2019-Aug-21 01:00N 22°18' E 114°13'0 0.0
2019-Aug-21 00:29N 22°18' E 114°13'0 0.0
2019-Aug-20 23:59N 22°18' E 114°13'0 0.0
2019-Aug-20 23:29N 22°18' E 114°13'0 0.0
2019-Aug-20 22:47N 22°18' E 114°13'0 0.8
2019-Aug-20 22:30N 22°18' E 114°13'4015.9
2019-Aug-20 20:00N 22°06' E 114°54'36217.2 060 / 121002.0 5.4 27.0
2019-Aug-19 23:00N 21°48' E 121°24'15216.9 280 / 81003.010.8 28.0 28.0
2019-Aug-19 14:00N 23°48' E 123°06'126 6.6 300 / 91002.010.8 26.014.8
2019-Aug-18 19:00N 25°00' E 125°00'193 9.6 330 / 101001.0 5.4 27.0
2019-Aug-17 23:00N 27°06' E 127°42'8220.6 290 / 31002.0 5.4 28.0 29.0
2019-Aug-17 19:00N 28°24' E 128°12'97 2.5 140 / 51001.0 5.4 28.0
2019-Aug-16 05:00N 28°42' E 126°24'10818.0 230 / 8999.0 30.020.0
2019-Aug-15 23:00N 27°42' E 124°42'22117.5 240 / 15999.0 5.4 29.0 28.0
2019-Aug-15 10:22N 25°40' E 121°16'8318.9
2019-Aug-15 06:00N 24°54' E 120°00'10918.2 180 / 23997.0 30.020.030.0
2019-Aug-15 00:00N 23°42' E 118°30'2118.2 230 / 19999.0 2.2 28.0 28.0
2019-Aug-14 22:52N 23°30' E 118°12'1517.9
2019-Aug-14 22:01N 23°20' E 117°60'317.9
2019-Aug-14 21:53N 23°19' E 117°57'817.6
2019-Aug-14 21:24N 23°14' E 117°50'717.5
2019-Aug-14 20:59N 23°10' E 117°43'817.6
2019-Aug-14 20:30N 23°07' E 117°34'2038.3
2019-Aug-14 20:00N 22°54' E 117°18'17416.3 220 / 188998.0 5.4 28.0
2019-Aug-14 09:18N 22°17' E 114°14'1 4.2
2019-Aug-14 09:00N 22°18' E 114°13'0 0.0
2019-Aug-14 08:25N 22°18' E 114°13'0 0.0
2019-Aug-14 07:49N 22°18' E 114°13'0 0.0
2019-Aug-14 07:13N 22°18' E 114°13'0 0.0
2019-Aug-14 06:49N 22°18' E 114°13'0 0.0
2019-Aug-14 04:49N 22°18' E 114°13'0 0.0
2019-Aug-14 04:25N 22°18' E 114°13'0 0.0
2019-Aug-14 03:01N 22°18' E 114°13'0 0.0
2019-Aug-14 01:13N 22°18' E 114°13'0 0.0
2019-Aug-14 00:43N 22°18' E 114°13'0 0.0
2019-Aug-14 00:25N 22°18' E 114°13'0 0.0
2019-Aug-13 23:19N 22°18' E 114°13'0 0.0
2019-Aug-13 22:55N 22°18' E 114°13'1 1.4
2019-Aug-13 22:30N 22°18' E 114°13'3011.8
2019-Aug-13 20:00N 21°48' E 114°12'1511.7 230 / 14998.010.8 28.0
2019-Aug-13 18:43N 21°42' E 113°57'617.0
2019-Aug-13 18:24N 21°39' E 113°53'3117.1
2019-Aug-13 16:35N 21°20' E 113°26'417.4
2019-Aug-13 16:22N 21°19' E 113°22'1217.4
2019-Aug-13 15:40N 21°12' E 113°11'3317.4
2019-Aug-13 13:46N 20°54' E 112°41'617.4
2019-Aug-13 13:26N 20°51' E 112°36'711.3
2019-Aug-13 12:47N 20°48' E 112°29'1817.4
2019-Aug-13 11:45N 20°41' E 112°11'1617.8
2019-Aug-13 10:52N 20°35' E 111°56'3616.6
2019-Aug-13 08:41N 20°18' E 111°21'618.0
2019-Aug-13 08:22N 20°16' E 111°16'4612.3
2019-Aug-13 04:36N 20°13' E 110°27'110.5
2019-Aug-13 04:28N 20°12' E 110°25'510.4
2019-Aug-13 04:00N 20°11' E 110°20'510.3
2019-Aug-13 03:30N 20°10' E 110°15'5 9.5
2019-Aug-13 03:00N 20°09' E 110°10'510.1
2019-Aug-13 02:30N 20°08' E 110°05'16 9.7
2019-Aug-13 00:53N 20°07' E 109°48'4 5.9
2019-Aug-13 00:17N 20°05' E 109°51'7 7.9
2019-Aug-12 23:21N 20°08' E 109°44'512.3
2019-Aug-12 22:58N 20°10' E 109°39'713.3
2019-Aug-12 22:25N 20°11' E 109°32'813.6
2019-Aug-12 21:51N 20°13' E 109°24'513.5
2019-Aug-12 21:30N 20°14' E 109°19'713.5
2019-Aug-12 21:00N 20°15' E 109°12'714.0
2019-Aug-12 20:30N 20°16' E 109°05'1120.9
2019-Aug-12 20:00N 20°12' E 108°54'6284.5 210 / 24997.010.8 29.0
2019-Aug-12 19:58N 20°18' E 108°56'714.7
2019-Aug-12 19:30N 20°18' E 108°49'914.6
2019-Aug-12 18:55N 20°20' E 108°40'613.8
2019-Aug-12 18:28N 20°21' E 108°34'1013.7
2019-Aug-12 17:46N 20°22' E 108°24'713.8
2019-Aug-12 17:17N 20°23' E 108°17'614.0
2019-Aug-12 16:50N 20°26' E 108°11'714.0
2019-Aug-12 16:21N 20°29' E 108°04'713.7
2019-Aug-12 15:52N 20°29' E 107°57'513.6
2019-Aug-12 15:30N 20°30' E 107°52'1513.8
2019-Aug-12 14:27N 20°33' E 107°36'813.5
2019-Aug-12 13:52N 20°35' E 107°28'513.7
2019-Aug-12 13:30N 20°36' E 107°23'713.5
2019-Aug-12 13:00N 20°38' E 107°16'813.0
2019-Aug-12 12:23N 20°44' E 107°11'  

Dump ship's entire track history